Monday, June 18, 2018, 8:50 PM EDT
Back to Local

KCON, Concord, Concord Municipal Airport

Location: Concord, NH, United States Lat: 43.195
Local Time: 8:50 PM EDT ( 0:50 GMT) Lon: -71.501
Time Zone: US/Eastern Elev: 344 ft

Show me the last for .
Show Decoded

2018-06-18 18:31 METAR KCON 182231Z AUTO 22008KT 3SM -TSRA BR FEW033 SCT055 BKN085 23/21 A2970
                 RMK AO2 PK WND 22030/2207 LTG DSNT E-S RAB08 TSB04 P0020 T02330211 =
2018-06-18 18:29 METAR KCON 182229Z AUTO 24009KT 1 1/2SM -TSRA BR FEW033 BKN075 OVC110 23/21
                 A2970 RMK AO2 PK WND 22030/2207 LTG DSNT E-S RAB08 TSB04 P0020 T02330211 =
2018-06-18 18:19 METAR KCON 182219Z AUTO 27011G24KT 3/4SM +TSRA BR FEW020 BKN070 OVC110 23/21
                 A2972 RMK AO2 PK WND 22030/2207 LTG DSNT E-S RAB08 TSB04 P0006 T02280211 =
2018-06-18 18:16 METAR KCON 182216Z AUTO 27013G28KT 1 3/4SM +TSRA BR FEW020 BKN060 BKN075 23/21
                 A2972 RMK AO2 PK WND 22030/2207 LTG DSNT E-SW RAB08 TSB04 P0002 T02330211 =
2018-06-18 18:10 METAR KCON 182210Z AUTO 24018G28KT 6SM -TSRA FEW036 BKN060 BKN075 26/20 A2971
                 RMK AO2 PK WND 22030/2207 LTG DSNT E-SW RAB08 TSB04 PRESRR P0000 T02610200 =
2018-06-18 17:51 METAR KCON 182151Z AUTO 18005KT 10SM VCTS SCT065 30/23 A2967 RMK AO2 LTG DSNT
                 S-W RAB2053E09 TSE2059 SLP045 P0000 T03000228 =
2018-06-18 17:05 METAR KCON 182105Z AUTO 23004KT 10SM -RA BKN060 BKN075 OVC120 31/22 A2969 RMK
                 AO2 LTG DSNT NE RAB2053 TSE2059 P0000 T03060222 =
2018-06-18 16:51 METAR KCON 182051Z AUTO 21005KT 10SM TS SCT065 BKN080 31/22 A2969 RMK AO2 TSB44
                 SLP053 T03110217 56020 =
2018-06-18 15:51 METAR KCON 181951Z AUTO 21013G20KT 10SM CLR 32/22 A2972 RMK AO2 SLP062 T03220217
                 =
2018-06-18 14:51 METAR KCON 181851Z AUTO 20010KT 10SM CLR 32/22 A2975 RMK AO2 SLP074 T03220217 =
2018-06-18 13:51 METAR KCON 181751Z AUTO 22007KT 10SM CLR 31/21 A2978 RMK AO2 SLP084 T03060206
                 10317 20211 58026 =
2018-06-18 12:51 METAR KCON 181651Z AUTO 23009KT 10SM CLR 32/20 A2981 RMK AO2 SLP094 T03170200 =
2018-06-18 11:51 METAR KCON 181551Z AUTO 20011KT 10SM CLR 29/19 A2984 RMK AO2 SLP103 T02940194 =
2018-06-18 10:51 METAR KCON 181451Z AUTO 17005KT 10SM CLR 28/19 A2986 RMK AO2 SLP111 T02780189
                 58021 =
2018-06-18 09:51 METAR KCON 181351Z AUTO 18005KT 10SM CLR 26/18 A2989 RMK AO2 SLP118 T02560178 =
2018-06-18 08:51 METAR KCON 181251Z AUTO 18006KT 10SM CLR 23/16 A2991 RMK AO2 SLP125 T02330161 =
2018-06-18 07:51 METAR KCON 181151Z AUTO 13003KT 10SM CLR 21/15 A2992 RMK AO2 SLP131 T02110150
                 10211 20139 56012 =
2018-06-18 06:51 METAR KCON 181051Z AUTO 00000KT 10SM CLR 19/14 A2993 RMK AO2 SLP133 T01890144 =
2018-06-18 05:51 METAR KCON 180951Z AUTO 00000KT 10SM CLR 16/14 A2994 RMK AO2 SLP137 T01560139 =
2018-06-18 04:51 METAR KCON 180851Z AUTO 00000KT 10SM CLR 17/13 A2996 RMK AO2 SLP143 T01670133
                 56019 =
2018-06-18 03:51 METAR KCON 180751Z AUTO 00000KT 10SM CLR 16/13 A2998 RMK AO2 SLP149 T01560128 =
2018-06-18 02:51 METAR KCON 180651Z AUTO 00000KT 10SM CLR 15/13 A2999 RMK AO2 SLP155 T01500128 =
2018-06-18 01:51 METAR KCON 180551Z AUTO 00000KT 10SM CLR 14/13 A3001 RMK AO2 SLP162 T01390128
                 10233 20139 58004 =
2018-06-18 00:51 METAR KCON 180451Z AUTO 00000KT 10SM CLR 16/13 A3002 RMK AO2 SLP165 T01560128
                 403170089 =
2018-06-17 23:51 METAR KCON 180351Z AUTO 06003KT 10SM CLR 17/13 A3002 RMK AO2 SLP165 T01720128 =
2018-06-17 22:51 METAR KCON 180251Z AUTO 00000KT 10SM CLR 19/13 A3003 RMK AO2 SLP166 T01890128
                 56007 =
2018-06-17 21:51 METAR KCON 180151Z AUTO 17006KT 10SM CLR 20/13 A3003 RMK AO2 SLP168 T02000133 =
2018-06-17 20:51 METAR KCON 180051Z AUTO 15006KT 10SM CLR 22/13 A3003 RMK AO2 SLP169 T02170133 =

Support USWX by starting your Amazon purchase here.